TimeEDT,TemperatureF,Dew PointF,Humidity,Sea Level PressureIn,VisibilityMPH,Wind Direction,Wind SpeedMPH,Gust SpeedMPH,PrecipitationIn,Events,Conditions,WindDirDegrees,DateUTC
12:54 AM,28.0,16.0,61,30.37,10.0,West,5.8,-,N/A,,Partly Cloudy,270,2013-04-04 04:54:00
1:54 AM,27.0,16.0,63,30.36,10.0,WSW,3.5,-,N/A,,Partly Cloudy,250,2013-04-04 05:54:00
2:54 AM,25.0,16.0,69,30.36,10.0,WSW,3.5,-,N/A,,Clear,240,2013-04-04 06:54:00
3:54 AM,24.1,16.0,71,30.36,10.0,SW,5.8,-,N/A,,Clear,220,2013-04-04 07:54:00
4:54 AM,24.1,16.0,71,30.36,10.0,SW,4.6,-,N/A,,Clear,230,2013-04-04 08:54:00
5:54 AM,24.1,17.1,75,30.37,10.0,SW,6.9,-,N/A,,Partly Cloudy,220,2013-04-04 09:54:00
6:54 AM,24.1,17.1,75,30.36,10.0,SSW,5.8,-,N/A,,Partly Cloudy,210,2013-04-04 10:54:00
7:54 AM,27.0,19.0,72,30.35,10.0,SW,8.1,-,N/A,,Partly Cloudy,220,2013-04-04 11:54:00
8:54 AM,30.0,19.9,66,30.35,10.0,SW,10.4,-,N/A,,Partly Cloudy,220,2013-04-04 12:54:00
9:54 AM,34.0,19.0,54,30.31,10.0,WSW,9.2,-,N/A,,Partly Cloudy,240,2013-04-04 13:54:00
10:54 AM,37.9,18.0,45,30.28,10.0,South,9.2,-,N/A,,Partly Cloudy,190,2013-04-04 14:54:00
11:54 AM,41.0,19.0,41,30.25,10.0,SSW,9.2,-,N/A,,Scattered Clouds,200,2013-04-04 15:54:00
12:54 PM,44.1,19.0,37,30.19,10.0,SSW,10.4,17.3,N/A,,Mostly Cloudy,200,2013-04-04 16:54:00
1:54 PM,48.0,19.9,33,30.14,10.0,South,10.4,19.6,N/A,,Mostly Cloudy,190,2013-04-04 17:54:00
2:54 PM,52.0,18.0,26,30.10,10.0,WSW,10.4,-,N/A,,Mostly Cloudy,240,2013-04-04 18:54:00
3:54 PM,55.0,15.1,21,30.05,10.0,SW,10.4,-,N/A,,Mostly Cloudy,230,2013-04-04 19:54:00
4:54 PM,55.0,15.1,21,30.03,10.0,WSW,11.5,-,N/A,,Mostly Cloudy,240,2013-04-04 20:54:00
5:54 PM,55.0,12.9,19,30.01,10.0,WSW,13.8,-,N/A,,Mostly Cloudy,240,2013-04-04 21:54:00
6:54 PM,54.0,12.9,20,30.00,10.0,WSW,6.9,-,N/A,,Mostly Cloudy,240,2013-04-04 22:54:00
7:54 PM,43.0,19.9,40,29.99,10.0,Calm,Calm,-,N/A,,Mostly Cloudy,0,2013-04-04 23:54:00
8:54 PM,41.0,19.9,43,29.98,10.0,Calm,Calm,-,N/A,,Scattered Clouds,0,2013-04-05 00:54:00
9:54 PM,35.1,21.9,59,29.97,10.0,Calm,Calm,-,N/A,,Mostly Cloudy,0,2013-04-05 01:54:00
10:54 PM,37.9,21.0,51,29.96,10.0,SW,5.8,-,N/A,,Mostly Cloudy,220,2013-04-05 02:54:00
11:54 PM,37.9,19.9,48,29.93,10.0,SSW,5.8,-,N/A,,Mostly Cloudy,200,2013-04-05 03:54:00